Dong Fang You 2 — BXEC — position and weather

sailwx.info

Track history (hours):
 
Tides and Currents Weather Stations Pressure Air Temp Water Temp Dewpoint Dewpoint Depression Visibility Wind Speed Wind Dir Waves Ship Positions

Dong Fang You 2

Last reported at 2015-Jul-25 08:04 UTC. Time now 2015-Jul-28 01:31 UTC.
Position N 20°11' E 110°21'.

Length 82 m; draft 3.2 m.

Type: Tanker. MMSI: 412464680.

Date/timePositionNaut miles runAvg speedWind from/ knotsBaromVisibWave heightAir tempDewpointWater temp
2015-Jul-25 08:04N 20°11' E 110°21'711.7
2015-Jul-25 07:27N 20°10' E 110°13'68 7.7
2015-Jul-24 22:33N 19°48' E 109°05'  
2015-Jul-20 14:22N 20°11' E 110°16'245 7.5
2015-Jul-19 05:33N 22°53' E 113°34'3 2.4
2015-Jul-19 04:10N 22°56' E 113°34'0 0.0
2015-Jul-19 00:16N 22°56' E 113°34'0 0.0
2015-Jul-18 23:28N 22°56' E 113°34'0 0.0
2015-Jul-18 22:28N 22°56' E 113°34'0 0.0
2015-Jul-18 21:28N 22°56' E 113°34'0 0.0
2015-Jul-18 20:28N 22°56' E 113°34'0 0.1
2015-Jul-18 19:28N 22°56' E 113°34'0 0.0
2015-Jul-18 18:04N 22°56' E 113°34'0 0.0
2015-Jul-18 17:22N 22°56' E 113°34'0 0.0
2015-Jul-18 16:34N 22°56' E 113°34'9 0.6
2015-Jul-18 02:26N 22°47' E 113°37'7 8.1
2015-Jul-18 01:33N 22°54' E 113°34'3 2.7
2015-Jul-18 00:32N 22°56' E 113°33'0 0.0
2015-Jul-17 23:33N 22°56' E 113°33'0 0.0
2015-Jul-17 22:32N 22°56' E 113°33'0 0.0
2015-Jul-17 21:33N 22°56' E 113°33'0 0.0
2015-Jul-17 20:32N 22°56' E 113°33'0 0.0
2015-Jul-17 19:32N 22°56' E 113°33'0 0.0
2015-Jul-17 18:33N 22°56' E 113°33'0 0.0
2015-Jul-17 17:33N 22°56' E 113°33'0 0.0
2015-Jul-17 16:33N 22°56' E 113°33'0 0.0
2015-Jul-17 15:33N 22°56' E 113°33'0 0.0
2015-Jul-17 14:09N 22°56' E 113°33'0 0.0
2015-Jul-17 13:32N 22°56' E 113°33'0 0.0
2015-Jul-17 12:30N 22°56' E 113°33'0 0.0
2015-Jul-17 11:31N 22°56' E 113°33'0 0.0
2015-Jul-17 10:25N 22°56' E 113°33'0 0.0
2015-Jul-17 09:34N 22°56' E 113°33'0 0.0
2015-Jul-17 08:32N 22°56' E 113°33'0 0.0
2015-Jul-17 07:15N 22°56' E 113°33'0 0.0
2015-Jul-17 06:31N 22°56' E 113°33'0 0.0
2015-Jul-17 05:33N 22°56' E 113°33'0 0.0
2015-Jul-17 04:33N 22°56' E 113°33'0 0.0
2015-Jul-17 03:27N 22°56' E 113°33'0 0.0
2015-Jul-17 02:31N 22°56' E 113°33'0 0.1
2015-Jul-17 01:33N 22°56' E 113°33'5 5.4
2015-Jul-17 00:33N 22°51' E 113°34'36 8.8
2015-Jul-16 20:30N 22°18' E 113°48'8 8.1
2015-Jul-16 19:33N 22°10' E 113°47'2 2.4
2015-Jul-16 18:33N 22°08' E 113°46'0 0.0
2015-Jul-16 17:33N 22°08' E 113°46'0 0.0
2015-Jul-16 16:33N 22°08' E 113°46'0 0.0
2015-Jul-16 15:33N 22°08' E 113°46'0 0.0
2015-Jul-16 14:23N 22°08' E 113°46'0 0.0
2015-Jul-16 13:33N 22°08' E 113°46'0 0.1
2015-Jul-16 12:33N 22°08' E 113°46'0 0.1
2015-Jul-16 11:33N 22°08' E 113°46'0 0.3
2015-Jul-16 10:33N 22°08' E 113°46'8 1.4
2015-Jul-16 04:33N 22°03' E 113°39'  
Track history (hours):
 
Tides and Currents Weather Stations Pressure Air Temp Water Temp Dewpoint Dewpoint Depression Visibility Wind Speed Wind Dir Waves Ship Positions

Dong Fang You 2

Last reported at 2015-Jul-25 08:04 UTC. Time now 2015-Jul-28 01:31 UTC.
Position N 20°11' E 110°21'.

Length 82 m; draft 3.2 m.

Type: Tanker. MMSI: 412464680.

Date/timePositionNaut miles runAvg speedWind from/ knotsBaromVisibWave heightAir tempDewpointWater temp
2015-Jul-25 08:04N 20°11' E 110°21'711.7
2015-Jul-25 07:27N 20°10' E 110°13'68 7.7
2015-Jul-24 22:33N 19°48' E 109°05'  
2015-Jul-20 14:22N 20°11' E 110°16'245 7.5
2015-Jul-19 05:33N 22°53' E 113°34'3 2.4
2015-Jul-19 04:10N 22°56' E 113°34'0 0.0
2015-Jul-19 00:16N 22°56' E 113°34'0 0.0
2015-Jul-18 23:28N 22°56' E 113°34'0 0.0
2015-Jul-18 22:28N 22°56' E 113°34'0 0.0
2015-Jul-18 21:28N 22°56' E 113°34'0 0.0
2015-Jul-18 20:28N 22°56' E 113°34'0 0.1
2015-Jul-18 19:28N 22°56' E 113°34'0 0.0
2015-Jul-18 18:04N 22°56' E 113°34'0 0.0
2015-Jul-18 17:22N 22°56' E 113°34'0 0.0
2015-Jul-18 16:34N 22°56' E 113°34'9 0.6
2015-Jul-18 02:26N 22°47' E 113°37'7 8.1
2015-Jul-18 01:33N 22°54' E 113°34'3 2.7
2015-Jul-18 00:32N 22°56' E 113°33'0 0.0
2015-Jul-17 23:33N 22°56' E 113°33'0 0.0
2015-Jul-17 22:32N 22°56' E 113°33'0 0.0
2015-Jul-17 21:33N 22°56' E 113°33'0 0.0
2015-Jul-17 20:32N 22°56' E 113°33'0 0.0
2015-Jul-17 19:32N 22°56' E 113°33'0 0.0
2015-Jul-17 18:33N 22°56' E 113°33'0 0.0
2015-Jul-17 17:33N 22°56' E 113°33'0 0.0
2015-Jul-17 16:33N 22°56' E 113°33'0 0.0
2015-Jul-17 15:33N 22°56' E 113°33'0 0.0
2015-Jul-17 14:09N 22°56' E 113°33'0 0.0
2015-Jul-17 13:32N 22°56' E 113°33'0 0.0
2015-Jul-17 12:30N 22°56' E 113°33'0 0.0
2015-Jul-17 11:31N 22°56' E 113°33'0 0.0
2015-Jul-17 10:25N 22°56' E 113°33'0 0.0
2015-Jul-17 09:34N 22°56' E 113°33'0 0.0
2015-Jul-17 08:32N 22°56' E 113°33'0 0.0
2015-Jul-17 07:15N 22°56' E 113°33'0 0.0
2015-Jul-17 06:31N 22°56' E 113°33'0 0.0
2015-Jul-17 05:33N 22°56' E 113°33'0 0.0
2015-Jul-17 04:33N 22°56' E 113°33'0 0.0
2015-Jul-17 03:27N 22°56' E 113°33'0 0.0
2015-Jul-17 02:31N 22°56' E 113°33'0 0.1
2015-Jul-17 01:33N 22°56' E 113°33'5 5.4
2015-Jul-17 00:33N 22°51' E 113°34'36 8.8
2015-Jul-16 20:30N 22°18' E 113°48'8 8.1
2015-Jul-16 19:33N 22°10' E 113°47'2 2.4
2015-Jul-16 18:33N 22°08' E 113°46'0 0.0
2015-Jul-16 17:33N 22°08' E 113°46'0 0.0
2015-Jul-16 16:33N 22°08' E 113°46'0 0.0
2015-Jul-16 15:33N 22°08' E 113°46'0 0.0
2015-Jul-16 14:23N 22°08' E 113°46'0 0.0
2015-Jul-16 13:33N 22°08' E 113°46'0 0.1
2015-Jul-16 12:33N 22°08' E 113°46'0 0.1
2015-Jul-16 11:33N 22°08' E 113°46'0 0.3
2015-Jul-16 10:33N 22°08' E 113°46'8 1.4
2015-Jul-16 04:33N 22°03' E 113°39'  

Dump ship's entire track history